37ème Challenge de Massy

Compétition Départementale

MASSY

Du Samedi 11 Mai 2019 au Dimanche 12 Mai 2019

Bassin de 50m

50 Nage Libre Dames

Finale A

Nom Année Temps Pts Club Pays
1 BRINDEJONC Juline 2006 0:28:76 1035 ES MASSY NATATION FRA
2 NGUYEN DUC LONG Rachel 2006 0:29:29 999 CN ST-MICHEL-SUR-ORGE FRA
3 DURAN Chiara 2006 0:29:51 984 NOGENT NATATION 94 FRA
4 BOUSQUIE Chloé 2006 0:29:56 981 CN VIRY-CHÂTILLON FRA
5 TABIASCO Alexandra 2006 0:29:80 965 STADE FRANÇAIS O COURBEVOIE FRA
6 LEGER Katell 2006 0:29:81 965 ES MASSY NATATION FRA
7 BOULAOUED Calie 2007 0:29:98 953 STADE FRANÇAIS O COURBEVOIE FRA
8 AMROUS Serine 2006 0:30:14 943 STADE FRANÇAIS O COURBEVOIE FRA
9 MONGIN Sthélyna 2007 0:30:58 915 CN ST-MICHEL-SUR-ORGE FRA
10 PHILIPPART Lina 2007 0:30:71 906 CN BERRE MIXTES FRA
11 MJAHED Sirine 2007 0:30:93 892 ES MASSY NATATION FRA
12 DE WEERDT Amelie 2007 0:30:95 891 CN BERRE MIXTES FRA
13 UKIC Sara 2007 0:31:01 887 STADE FRANÇAIS O COURBEVOIE FRA
14 SOKOLOV Elisabeth 2007 0:31:10 882 ES VITRY FRA
15 BARRIA-PINTO Andrea 2007 0:31:10 882 USO BEZONS FRA
16 MOREIRA DA VEIGA Alexia 2006 0:31:32 868 CN VIRY-CHÂTILLON FRA
17 KOHLER Gabriela 2008 0:31:66 847 STADE FRANÇAIS O COURBEVOIE FRA
18 BRUGMAN Serena 2008 0:32:91 772 CN BERRE MIXTES FRA
19 AREL-MASSOL Gloria 2008 0:33:08 762 CN ST-MICHEL-SUR-ORGE FRA
20 MARTEAU Cassidy 2008 0:33:21 754 CN BRUNOY-ESSONNE FRA
21 GUILLEUX-MASSON Emmy 2008 0:33:32 748 CSN GUYANCOURT FRA
22 CABIOCH Leonie 2008 0:33:33 747 CSN GUYANCOURT FRA
23 CALECKI Emma 2008 0:33:98 710 ES VITRY FRA
24 FOUASSIER Julie 2008 0:34:14 701 CN BRUNOY-ESSONNE FRA
25 JAFFUEL Ella 2009 0:35:85 609 STADE FRANÇAIS O COURBEVOIE FRA
26 REMY Lou 2009 0:36:24 589 ES MASSY NATATION FRA
27 HUCHETTE GERARD Siloë 2010 0:36:74 563 ES MASSY NATATION FRA
28 LARRIEULE Maïa 2009 0:37:41 530 CSN GUYANCOURT FRA
29 BELOTTI Clara 2009 0:37:72 515 ES VITRY FRA
30 BOTS Chloé 2009 0:38:28 489 CN BRUNOY-ESSONNE FRA
31 CAETANO Lily 2009 0:38:46 480 CN ST-MICHEL-SUR-ORGE FRA
32 DELSART Ambre 2010 0:38:50 479 ES MASSY NATATION FRA
33 BOULOUKBACHI Celia 2010 0:39:24 445 ES VITRY FRA
34 MAUREL-GUERET Chloé 2009 0:39:32 441 CLUB NAUTIQUE DOMREMY 13 FRA
35 GRASSET Lilyrose 2009 0:39:48 434 ES VITRY FRA
36 LANDREAT Amandine 2010 0:42:43 314 CN BRUNOY-ESSONNE FRA
37 LORENZI Noa 2010 0:43:39 279 ES MASSY NATATION FRA
38 UYTTERHOEVEN Flo 2010 0:44:77 233 CN BERRE MIXTES FRA
39 TORTI Eva 2010 0:45:33 215 CN VIRY-CHÂTILLON FRA
40 CAUTY Ninon 2010 0:46:09 192 ES MASSY NATATION FRA

Séries

Nom Année Temps Pts Club Pays
1 NGUYEN DUC LONG Rachel 2006 0:28:99 1019 CN ST-MICHEL-SUR-ORGE FRA
2 BRINDEJONC Juline 2006 0:29:51 984 ES MASSY NATATION FRA
3 TABIASCO Alexandra 2006 0:29:71 971 STADE FRANÇAIS O COURBEVOIE FRA
4 BOULAOUED Calie 2007 0:29:84 963 STADE FRANÇAIS O COURBEVOIE FRA
5 DURAN Chiara 2006 0:29:86 961 NOGENT NATATION 94 FRA
6 MOREIRA DA VEIGA Alexia 2006 0:30:15 942 CN VIRY-CHÂTILLON FRA
7 AMROUS Serine 2006 0:30:15 942 STADE FRANÇAIS O COURBEVOIE FRA
8 LEGER Katell 2006 0:30:17 941 ES MASSY NATATION FRA
9 BOUSQUIE Chloé 2006 0:30:20 939 CN VIRY-CHÂTILLON FRA
10 FAULCON Clara 2006 0:30:27 935 LA SAINT MANDEENNE FRA
11 PHILIPPART Lina 2007 0:30:83 899 CN BERRE MIXTES FRA
12 FABREGOULE Caroline 2006 0:30:86 897 LAGNY-SUR-MARNE NATATION FRA
13 MONGIN Sthélyna 2007 0:31:04 886 CN ST-MICHEL-SUR-ORGE FRA
14 UKIC Sara 2007 0:31:17 877 STADE FRANÇAIS O COURBEVOIE FRA
15 BARRIA-PINTO Andrea 2007 0:31:24 873 USO BEZONS FRA
16 DE WEERDT Amelie 2007 0:31:25 872 CN BERRE MIXTES FRA
17 HADJIDJ Lina 2006 0:31:48 858 ES MASSY NATATION FRA
18 SOKOLOV Elisabeth 2007 0:31:54 854 ES VITRY FRA
19 MJAHED Sirine 2007 0:31:79 839 ES MASSY NATATION FRA
20 DOUILLET Ionnah 2007 0:31:88 833 ES MASSY NATATION FRA
21 LINDMARK MELO Maia 2007 0:31:91 832 CN BERRE MIXTES FRA
22 OULARBI Dania 2007 0:32:01 826 CN ST-MICHEL-SUR-ORGE FRA
23 VELLA Djenaba 2006 0:32:05 823 ES VITRY FRA
24 THIERRY Clara 2006 0:32:22 813 CN MELUN VAL DE SEINE FRA
25 REINESCH Leeloo 2007 0:32:34 806 CN BERRE MIXTES FRA
26 FAISANT Tanaïs 2007 0:32:36 804 CN ST-MICHEL-SUR-ORGE FRA
27 LELEU Elodie 2006 0:32:37 804 NOGENT NATATION 94 FRA
28 ALLIONE Elise 2006 0:32:39 803 NOGENT NATATION 94 FRA
29 PETESCH Lea 2007 0:32:45 799 CN BERRE MIXTES FRA
30 MOUNIER Manon 2006 0:32:56 793 ES MASSY NATATION FRA
31 ANGELE Loulia 2007 0:32:78 779 ES MASSY NATATION FRA
32 VALLÉE Yaël 2006 0:32:80 778 CLUB NAUTIQUE DOMREMY 13 FRA
33 KOHLER Gabriela 2008 0:32:85 775 STADE FRANÇAIS O COURBEVOIE FRA
34 BRUGMAN Serena 2008 0:33:17 757 CN BERRE MIXTES FRA
35 HADDADI Melissa 2006 0:33:17 757 ES VITRY FRA
36 SANCHEZ Laura 2006 0:33:28 750 CN BRUNOY-ESSONNE FRA
37 CAES Oone 2007 0:33:36 746 CN BERRE MIXTES FRA
38 PORCHER Pauline 2006 0:33:42 742 NOGENT NATATION 94 FRA
39 POPA Sonia 2006 0:33:45 740 CN BERRE MIXTES FRA
40 GUILLEUX-MASSON Emmy 2008 0:33:55 735 CSN GUYANCOURT FRA
41 ROSELET Taina 2007 0:33:55 735 LAGNY-SUR-MARNE NATATION FRA
42 MARTEAU Cassidy 2008 0:33:56 734 CN BRUNOY-ESSONNE FRA
43 ARAGONES Roxane 2007 0:33:58 733 ES MASSY NATATION FRA
44 AREL-MASSOL Gloria 2008 0:33:60 732 CN ST-MICHEL-SUR-ORGE FRA
45 BARBAT Périne 2006 0:33:60 732 CN ST-MICHEL-SUR-ORGE FRA
46 MARTEAU Julie 2006 0:33:62 731 CN BERRE MIXTES FRA
47 JAILLET Lisa 2006 0:33:77 722 CSN GUYANCOURT FRA
48 BONEL Ninon 2007 0:33:87 717 CN ST-MICHEL-SUR-ORGE FRA
49 CORDOVAL Tiara 2007 0:34:03 707 CN BRUNOY-ESSONNE FRA
50 SKOUMAS Stéfanie 2006 0:34:18 699 CN ST-MICHEL-SUR-ORGE FRA
51 CALECKI Emma 2008 0:34:37 689 ES VITRY FRA
52 FOUASSIER Julie 2008 0:34:50 681 CN BRUNOY-ESSONNE FRA
53 JAFFUEL Ella 2009 0:34:55 679 STADE FRANÇAIS O COURBEVOIE FRA
54 PEPIN Louise 2007 0:34:86 662 CN BRUNOY-ESSONNE FRA
55 PASTULA Kamila 2007 0:34:94 657 ES VITRY FRA
56 GARNIER Apolline 2006 0:35:02 653 NOGENT NATATION 94 FRA
57 CABIOCH Leonie 2008 0:35:10 649 CSN GUYANCOURT FRA
58 BEHAEGHEL Janne 2007 0:35:14 646 CN BERRE MIXTES FRA
59 GUILLEUX MASSON Lola 2006 0:35:15 646 CSN GUYANCOURT FRA
60 THIDET Adèle 2006 0:35:20 643 CLUB NAUTIQUE DOMREMY 13 FRA
61 POIROT Sidonie 2008 0:35:37 634 CN BRUNOY-ESSONNE FRA
62 POBEL-CRAPPE Laura 2008 0:35:41 632 CSN GUYANCOURT FRA
63 SOARES-BOURGOGNE Loriana 2007 0:35:41 632 STADE DE VANVES FRA
64 DEWYN Chloe 2007 0:35:46 629 CN BERRE MIXTES FRA
65 RAKOTOZAFY Hannah 2008 0:35:66 619 CN ST-MICHEL-SUR-ORGE FRA
66 BERAJA Chaynaze 2006 0:36:11 595 CN MELUN VAL DE SEINE FRA
67 REMY Lou 2009 0:36:14 594 ES MASSY NATATION FRA
68 ADLI Anais 2007 0:36:16 593 CN BRUNOY-ESSONNE FRA
69 VERVLOESSEM Siska 2008 0:36:22 590 CN BERRE MIXTES FRA
70 QUAINAY Assia 2006 0:36:42 580 CSN GUYANCOURT FRA
71 POUMAREDE Ariane 2006 0:36:46 578 CN ST-MICHEL-SUR-ORGE FRA
72 BOUTIN Melina 2007 0:36:48 576 CN ST-MICHEL-SUR-ORGE FRA
73 TORRES Capucine 2007 0:36:51 575 NOGENT NATATION 94 FRA
74 TERIIPAIA CHEVRETON Kalena 2008 0:36:70 565 STADE DE VANVES FRA
75 BECKER Lola 2008 0:36:74 563 STADE DE VANVES FRA
76 GIRAUD Agathe 2007 0:36:78 561 CLUB NAUTIQUE DOMREMY 13 FRA
77 HADJ-ALI Aya 2008 0:36:85 558 US VAIRES FRA
78 MULLER Camille 2008 0:36:92 554 CN BRUNOY-ESSONNE FRA
79 BERTE Maud 2007 0:37:03 549 CSN GUYANCOURT FRA
80 DE OLIVEIRA Maelle 2008 0:37:07 547 US VAIRES FRA
81 CISSE Maïwenn 2007 0:37:12 544 CN ST-MICHEL-SUR-ORGE FRA
82 AMRANI Wisale 2006 0:37:13 544 LAGNY-SUR-MARNE NATATION FRA
83 VERBRUGGEN Hanne 2008 0:37:28 537 CN BERRE MIXTES FRA
84 CUREAU Lys 2008 0:37:36 533 CSN GUYANCOURT FRA
85 HUCHETTE GERARD Siloë 2010 0:37:70 516 ES MASSY NATATION FRA
86 LARRIEULE Maïa 2009 0:37:76 513 CSN GUYANCOURT FRA
87 BELHACHEMI Manare 2008 0:37:79 512 US VAIRES FRA
88 ROBAUT Mathilde 2008 0:37:94 505 CN MELUN VAL DE SEINE FRA
89 NOUREDDINE Attika 2008 0:38:05 500 ES MASSY NATATION FRA
90 SO Fatoumata 2007 0:38:27 489 ES MASSY NATATION FRA
91 MARTUCCI Sofia 2008 0:38:37 485 CN BERRE MIXTES FRA
92 DELSART Ambre 2010 0:38:69 470 ES MASSY NATATION FRA
93 BELOTTI Clara 2009 0:38:75 467 ES VITRY FRA
94 BOTS Chloé 2009 0:38:80 465 CN BRUNOY-ESSONNE FRA
95 AMIR-TAHMASSEB-BERTHET Prune 2008 0:38:81 464 NOGENT NATATION 94 FRA
96 DE PRETER Lien 2008 0:38:98 457 CN BERRE MIXTES FRA
97 SCHEPENS Mette 2007 0:39:06 453 CN BERRE MIXTES FRA
98 SEBIK Patricia 2006 0:39:37 439 CN MELUN VAL DE SEINE FRA
99 THINNES Lena 2007 0:39:41 437 CN BERRE MIXTES FRA
100 CAETANO Lily 2009 0:39:45 436 CN ST-MICHEL-SUR-ORGE FRA
101 GRASSET Lilyrose 2009 0:39:66 426 ES VITRY FRA
102 MAUREL-GUERET Chloé 2009 0:39:72 424 CLUB NAUTIQUE DOMREMY 13 FRA
103 BOULOUKBACHI Celia 2010 0:39:79 421 ES VITRY FRA
104 PHULPIN Lena 2008 0:39:98 413 STADE DE VANVES FRA
105 CONTE PEREIRA Léana 2009 0:40:03 410 USO BEZONS FRA
106 HORDESSEAUX Roxanne 2009 0:40:23 402 ES MASSY NATATION FRA
107 DUFOUR Clothilde 2009 0:40:32 398 ES MASSY NATATION FRA
108 JAILLET PEYREGNE Chloé 2009 0:40:43 394 CSN GUYANCOURT FRA
109 DREUX Clémence 2008 0:40:71 382 CN VIRY-CHÂTILLON FRA
110 POUX Léana 2009 0:41:37 355 CN ST-MICHEL-SUR-ORGE FRA
111 PINAUD Alice 2009 0:41:48 351 ES MASSY NATATION FRA
112 LANDREAT Cloé 2008 0:41:50 350 CN BRUNOY-ESSONNE FRA
113 BRUGMAN Naomi 2009 0:41:60 346 CN BERRE MIXTES FRA
114 NOUREDDINE Rena 2009 0:42:51 311 ES MASSY NATATION FRA
115 BOUTDARINE Zineb 2009 0:42:61 307 CN MELUN VAL DE SEINE FRA
116 PETIT EYRIN Clemence 2009 0:42:62 307 ES MASSY NATATION FRA
117 VAN DEN BROECK Yany 2009 0:42:97 294 CN BERRE MIXTES FRA
118 PARACHE Oriana 2009 0:43:01 293 CSN GUYANCOURT FRA
119 LORENZI Noa 2010 0:43:07 291 ES MASSY NATATION FRA
120 SABOURAULT Garance 2009 0:43:51 275 CLUB NAUTIQUE DOMREMY 13 FRA
121 TORTI Eva 2010 0:43:53 274 CN VIRY-CHÂTILLON FRA
122 LANDREAT Amandine 2010 0:43:65 270 CN BRUNOY-ESSONNE FRA
123 CAUTY Ninon 2010 0:43:65 270 ES MASSY NATATION FRA
124 UYTTERHOEVEN Flo 2010 0:43:89 262 CN BERRE MIXTES FRA
125 REZK-KALLAH Ines 2010 0:44:08 255 ES MASSY NATATION FRA
126 ELIE Alexandra 2009 0:44:42 244 CSN GUYANCOURT FRA
127 BOHMER Janne 2010 0:44:72 234 CN BERRE MIXTES FRA
128 ELOISE Sarah 2009 0:44:86 230 CSN GUYANCOURT FRA
129 AKROUR Taïce 2010 0:45:24 218 CN VIRY-CHÂTILLON FRA
130 HENRIQUES Emma 2009 0:45:34 215 CN BRUNOY-ESSONNE FRA
131 MARCHAIS PAILLET Aline 2010 0:47:25 160 ES MASSY NATATION FRA
132 TASSY Roxane 2010 0:49:26 110 CN VIRY-CHÂTILLON FRA
133 BATIKIAN Chloé 2010 0:49:62 103 CN ST-MICHEL-SUR-ORGE FRA
134 GUILLOTON Margo 2010 0:50:05 94 CN ST-MICHEL-SUR-ORGE FRA
135 PICARD Anais 2010 0:50:58 83 ES MASSY NATATION FRA
136 DUARTE Gabrielle 2009 0:50:59 83 CLUB NAUTIQUE DOMREMY 13 FRA
137 HENRY Enea 2010 0:52:30 53 ES MASSY NATATION FRA